EGAA/BFS METAR and TAF weather

Enter ICAO airport designator
Station Type Date Time Source
EGAA METAR 2018/04/19 12:50 UTC NOAA

EGAA 191250Z 21009KT 170V240 9999 FEW029 SCT045 17/10 Q1021


Station Type Date Time Source
EGAA Decoded METAR 2018/04/19 12:50 UTC NOAA

Belfast / Aldergrove Airport, United Kingdom (EGAA) 54-39N 006-13W 0M
Apr 19, 2018 - 08:50 AM EDT / 2018.04.19 1250 UTC
Wind: from the SSW (210 degrees) at 10 MPH (9 KT) (direction variable):0
Visibility: greater than 7 mile(s):0
Sky conditions: partly cloudy
Temperature: 62 F (17 C)
Dew Point: 50 F (10 C)
Relative Humidity: 63%
Pressure (altimeter): 30.15 in. Hg (1021 hPa)
ob: EGAA 191250Z 21009KT 170V240 9999 FEW029 SCT045 17/10 Q1021
cycle: 13

Station Type Date Time Source
EGAA TAF 2018/04/19 12:15 UTC NOAA

TAF TAF EGAA 191059Z 1912/2012 20008KT 9999 FEW022 SCT040 PROB30 2003/2007 BKN007


Example: see airport list